Terminal Aerodrome Forecast
Issued by NWS Charleston, WV

Current Version | Previous Version | Graphics & Text | Print | Product List | Glossary On
Versions: 1 2 3 4 5 6 7 8 9 10 11 12 13 14 15 16 17 18 19 20 21 22 23 24 25
522
FTUS41 KRLX 142321
TAFPKB
TAF
KPKB 142321Z 1500/1524 00000KT P6SM FEW250
     FM150900 00000KT P6SM BKN090
     FM152000 18006KT P6SM OVC040
     FM152100 18006KT P6SM OVC030
     FM152200 19008KT 2SM -SHSN OVC018=

USA.gov is the U.S. government's official web portal to all federal, state and local government web resources and services.